Time;durP1;ratioP1;P1;durP2;ratioP2;P2;SDS_P1;SDS_P2;PMS_P1;PMS_P2;Temp;Humidity;BMP_temperature;BMP_pressure;BME280_temperature;BME280_humidity;BME280_pressure;Samples;Min_cycle;Max_cycle;Signal;HPM_P1;HPM_P2
2022/06/20 00:02:20;;;;;;;7.47;2.87;;;27.70;34.70;;;;;;5071628;28;20430;-45
2022/06/20 00:04:48;;;;;;;4.07;2.57;;;27.70;34.70;;;;;;5071583;28;20400;-46
2022/06/20 00:07:14;;;;;;;4.40;2.87;;;27.70;34.60;;;;;;5071621;28;20498;-46
2022/06/20 00:09:40;;;;;;;4.30;2.60;;;27.60;34.60;;;;;;5071559;28;20869;-45
2022/06/20 00:12:06;;;;;;;9.00;2.63;;;27.50;34.60;;;;;;5071558;28;20434;-46
2022/06/20 00:14:32;;;;;;;3.40;2.87;;;27.50;34.60;;;;;;5071562;28;20540;-45
2022/06/20 00:16:58;;;;;;;3.40;2.67;;;27.40;34.60;;;;;;5071165;28;20450;-46
2022/06/20 00:19:23;;;;;;;6.13;3.13;;;27.40;34.70;;;;;;5073870;28;20262;-47
2022/06/20 00:21:49;;;;;;;5.13;2.80;;;27.30;34.90;;;;;;5075189;28;20184;-46
2022/06/20 00:24:15;;;;;;;6.43;3.03;;;27.30;34.60;;;;;;5075130;28;20169;-45
2022/06/20 00:26:41;;;;;;;4.97;2.90;;;27.30;34.50;;;;;;5074994;28;20259;-45
2022/06/20 00:29:10;;;;;;;6.03;2.70;;;27.20;34.40;;;;;;5075019;28;20262;-45
2022/06/20 00:31:36;;;;;;;4.03;3.10;;;27.20;34.50;;;;;;5073575;28;20216;-46
2022/06/20 00:34:02;;;;;;;6.47;2.90;;;27.10;34.40;;;;;;5074861;28;20452;-46
2022/06/20 00:36:28;;;;;;;4.57;2.80;;;27.00;34.40;;;;;;5074603;28;20446;-47
2022/06/20 00:38:56;;;;;;;4.77;3.20;;;27.00;34.50;;;;;;5074858;28;20441;-46
2022/06/20 00:41:27;;;;;;;6.07;3.43;;;26.90;34.00;;;;;;5074866;28;20784;-46
2022/06/20 00:43:53;;;;;;;2.87;2.23;;;26.90;33.90;;;;;;5074872;28;20403;-46
2022/06/20 00:46:28;;;;;;;5.40;3.73;;;26.80;33.90;;;;;;5074464;28;20409;-45
2022/06/20 00:49:08;;;;;;;5.87;2.77;;;26.70;33.90;;;;;;5074656;28;20406;-45
2022/06/20 00:51:42;;;;;;;7.17;2.70;;;26.70;34.00;;;;;;5074486;28;20483;-46
2022/06/20 00:54:23;;;;;;;6.20;2.90;;;26.60;34.00;;;;;;5074533;28;20758;-46
2022/06/20 00:57:04;;;;;;;3.33;2.60;;;26.50;34.10;;;;;;5074269;28;20435;-46
2022/06/20 00:59:37;;;;;;;7.20;3.30;;;26.50;34.10;;;;;;5074445;28;20970;-46
2022/06/20 01:02:08;;;;;;;4.80;2.70;;;26.50;34.20;;;;;;5074457;28;20399;-46
2022/06/20 01:04:43;;;;;;;5.33;2.77;;;26.40;34.20;;;;;;5074467;28;20736;-47
2022/06/20 01:07:16;;;;;;;4.53;3.13;;;26.40;34.40;;;;;;5074180;28;20719;-46
2022/06/20 01:09:46;;;;;;;6.63;2.53;;;26.40;34.40;;;;;;5074239;28;20427;-46
2022/06/20 01:12:18;;;;;;;3.40;3.03;;;26.40;34.50;;;;;;5074501;28;20490;-46
2022/06/20 01:14:44;;;;;;;6.20;2.77;;;26.40;35.30;;;;;;5074232;28;20902;-46
2022/06/20 01:17:41;;;;;;;5.90;2.53;;;26.30;34.70;;;;;;5073935;28;20447;-46
2022/06/20 01:20:26;;;;;;;3.43;2.70;;;26.40;34.80;;;;;;5064810;28;20220;-46
2022/06/20 01:23:20;;;;;;;5.77;3.03;;;26.30;34.80;;;;;;5074108;28;20391;-46
2022/06/20 01:26:11;;;;;;;5.70;3.00;;;26.30;34.90;;;;;;5073815;28;20395;-45
2022/06/20 01:28:40;;;;;;;4.50;3.87;;;26.30;34.90;;;;;;5073913;28;20403;-46
2022/06/20 01:31:09;;;;;;;10.10;3.37;;;26.30;34.70;;;;;;5073797;28;20435;-46
2022/06/20 01:33:36;;;;;;;4.20;3.20;;;26.20;34.80;;;;;;5073801;28;20398;-46
2022/06/20 01:38:48;;;;;;;5.30;4.30;;;26.20;34.90;;;;;;5073939;28;20480;-46
2022/06/20 01:44:03;;;;;;;5.60;3.67;;;26.00;35.20;;;;;;5073858;28;20775;-46
2022/06/20 01:46:31;;;;;;;7.53;3.27;;;26.00;35.20;;;;;;5073356;28;20411;-47
2022/06/20 01:49:19;;;;;;;4.70;3.60;;;25.90;34.70;;;;;;5073429;28;20993;-45
2022/06/20 01:51:53;;;;;;;3.67;3.13;;;25.90;35.00;;;;;;5073502;28;20391;-46
2022/06/20 01:54:23;;;;;;;4.47;2.80;;;25.80;35.30;;;;;;5073457;28;20395;-46
2022/06/20 01:56:51;;;;;;;6.07;3.37;;;25.80;35.20;;;;;;5073158;28;20471;-45
2022/06/20 01:59:24;;;;;;;3.17;2.40;;;25.80;35.40;;;;;;5073159;28;20991;-45
2022/06/20 02:01:51;;;;;;;4.70;2.80;;;25.80;35.50;;;;;;5073289;28;20415;-46
2022/06/20 02:04:21;;;;;;;4.03;3.50;;;25.70;35.90;;;;;;5073381;28;20407;-46
2022/06/20 02:06:50;;;;;;;5.43;3.57;;;25.70;35.70;;;;;;5073000;28;20421;-46
2022/06/20 02:09:16;;;;;;;5.27;3.93;;;25.60;36.00;;;;;;5073796;28;20413;-47
2022/06/20 02:11:45;;;;;;;4.67;3.30;;;25.60;35.90;;;;;;5073090;28;20449;-46
2022/06/20 02:14:20;;;;;;;4.30;3.50;;;25.50;35.70;;;;;;5072927;28;20415;-47
2022/06/20 02:16:53;;;;;;;3.47;3.13;;;25.50;36.10;;;;;;5072856;28;20980;-46
2022/06/20 02:19:24;;;;;;;7.70;3.77;;;25.50;36.20;;;;;;5072907;28;20756;-47
2022/06/20 02:21:53;;;;;;;5.50;3.77;;;25.50;36.50;;;;;;5072923;28;20499;-46
2022/06/20 02:24:23;;;;;;;4.90;3.13;;;25.40;36.50;;;;;;5072887;28;20928;-46
2022/06/20 02:26:52;;;;;;;6.13;4.00;;;25.40;36.70;;;;;;5072527;28;20426;-47
2022/06/20 02:29:28;;;;;;;4.50;3.37;;;25.40;36.80;;;;;;5072845;28;20482;-46
2022/06/20 02:31:57;;;;;;;4.43;3.37;;;25.40;36.90;;;;;;5072858;28;20410;-47
2022/06/20 02:34:26;;;;;;;8.43;4.30;;;25.30;36.80;;;;;;5072713;28;20816;-47
2022/06/20 02:36:53;;;;;;;7.27;3.90;;;25.30;36.70;;;;;;5072314;28;20500;-47
2022/06/20 02:39:20;;;;;;;5.90;4.10;;;25.30;36.80;;;;;;5072608;28;20442;-47
2022/06/20 02:41:52;;;;;;;7.73;3.60;;;25.30;36.90;;;;;;5071953;28;20882;-46
2022/06/20 02:44:20;;;;;;;4.53;3.57;;;25.30;37.10;;;;;;5072633;28;20391;-47
2022/06/20 02:46:48;;;;;;;3.73;3.00;;;25.40;37.20;;;;;;5072314;28;20406;-47
2022/06/20 02:49:17;;;;;;;6.60;3.93;;;25.40;37.20;;;;;;5072901;28;20407;-46
2022/06/20 02:51:52;;;;;;;4.70;3.60;;;25.50;37.10;;;;;;5072825;28;20426;-48
2022/06/20 02:54:22;;;;;;;5.00;3.33;;;25.50;37.00;;;;;;5072679;28;20901;-47
2022/06/20 02:56:52;;;;;;;6.93;3.70;;;25.60;36.90;;;;;;5072161;28;20469;-47
2022/06/20 02:59:22;;;;;;;6.97;3.80;;;25.60;36.90;;;;;;5072402;28;20410;-46
2022/06/20 03:02:01;;;;;;;4.10;2.90;;;25.60;36.70;;;;;;5072349;28;20387;-47
2022/06/20 03:04:30;;;;;;;3.70;2.93;;;25.60;36.90;;;;;;5072340;28;20890;-47
2022/06/20 03:07:07;;;;;;;7.10;3.73;;;25.60;37.00;;;;;;5072104;28;20417;-47
2022/06/20 03:09:37;;;;;;;4.03;3.50;;;25.60;37.00;;;;;;5072285;28;20407;-46
2022/06/20 03:12:05;;;;;;;4.60;2.87;;;25.60;37.20;;;;;;5072302;28;20402;-47
2022/06/20 03:14:47;;;;;;;4.57;4.00;;;25.60;37.20;;;;;;5072206;28;20415;-47
2022/06/20 03:17:16;;;;;;;3.50;3.20;;;25.50;37.20;;;;;;5071957;28;20461;-46
2022/06/20 03:19:47;;;;;;;5.63;4.00;;;25.50;37.20;;;;;;5072116;28;20425;-47
2022/06/20 03:22:17;;;;;;;5.80;3.37;;;25.50;37.20;;;;;;5072560;28;20399;-46
2022/06/20 03:24:45;;;;;;;5.70;3.73;;;25.50;37.20;;;;;;5072048;28;20956;-45
2022/06/20 03:27:15;;;;;;;5.40;3.67;;;25.40;37.30;;;;;;5071764;28;20419;-47
2022/06/20 03:29:43;;;;;;;7.87;3.30;;;25.40;37.40;;;;;;5072054;28;20427;-47
2022/06/20 03:32:09;;;;;;;7.50;3.70;;;25.30;37.30;;;;;;5072085;28;20415;-48
2022/06/20 03:34:35;;;;;;;5.10;4.10;;;25.30;38.20;;;;;;5071989;28;20464;-47
2022/06/20 03:37:02;;;;;;;5.13;4.00;;;25.30;37.70;;;;;;5071888;28;20481;-47
2022/06/20 03:39:29;;;;;;;9.37;4.10;;;25.30;37.80;;;;;;5071967;28;20173;-47
2022/06/20 03:41:56;;;;;;;4.80;4.00;;;25.30;37.90;;;;;;5071941;28;20419;-47
2022/06/20 03:44:28;;;;;;;4.57;3.13;;;25.30;37.70;;;;;;5072029;28;20415;-46
2022/06/20 03:47:23;;;;;;;3.60;3.23;;;25.30;37.60;;;;;;5071804;28;20417;-46
2022/06/20 03:50:05;;;;;;;4.83;3.30;;;25.30;37.50;;;;;;5068079;28;20451;-46
2022/06/20 03:52:42;;;;;;;6.13;3.57;;;25.30;37.60;;;;;;5072899;28;20838;-46
2022/06/20 03:55:24;;;;;;;6.37;3.80;;;25.30;37.70;;;;;;5075762;28;20414;-46
2022/06/20 03:58:15;;;;;;;6.27;4.00;;;25.30;37.70;;;;;;5075749;28;20387;-47
2022/06/20 04:00:58;;;;;;;5.13;3.33;;;25.30;37.60;;;;;;5075773;28;20781;-47
2022/06/20 04:03:55;;;;;;;5.70;3.50;;;25.30;37.60;;;;;;5076116;28;20743;-47
2022/06/20 04:06:43;;;;;;;6.40;3.67;;;25.30;37.40;;;;;;5075695;28;20418;-46
2022/06/20 04:12:32;;;;;;;4.20;3.50;;;25.30;37.10;;;;;;5075692;28;20428;-47
2022/06/20 04:15:09;;;;;;;6.90;4.20;;;25.40;37.10;;;;;;5075509;28;20391;-47
2022/06/20 04:20:38;;;;;;;5.00;3.00;;;25.40;37.30;;;;;;5075496;28;20457;-47
2022/06/20 04:23:27;;;;;;;6.23;3.00;;;25.40;37.00;;;;;;5075504;28;20410;-47
2022/06/20 04:26:01;;;;;;;4.73;3.10;;;25.40;36.90;;;;;;5075302;28;20460;-47
2022/06/20 04:28:41;;;;;;;4.27;3.20;;;25.40;36.70;;;;;;5075385;28;20410;-47
2022/06/20 04:31:20;;;;;;;5.70;3.60;;;25.40;36.90;;;;;;5075348;28;20461;-47
2022/06/20 04:34:09;;;;;;;7.20;4.00;;;25.40;37.00;;;;;;5075135;28;20394;-47
2022/06/20 04:36:43;;;;;;;4.90;3.00;;;25.50;37.00;;;;;;5075267;28;20466;-47
2022/06/20 04:39:39;;;;;;;5.13;3.73;;;25.50;37.00;;;;;;5075203;28;20402;-46
2022/06/20 04:42:10;;;;;;;7.43;3.70;;;25.50;36.90;;;;;;5075205;28;20399;-47
2022/06/20 04:44:58;;;;;;;5.00;3.07;;;25.50;37.00;;;;;;5075760;28;20387;-46
2022/06/20 04:47:43;;;;;;;4.60;3.20;;;25.60;37.00;;;;;;5074995;28;20399;-46
2022/06/20 04:50:27;;;;;;;6.07;3.40;;;25.80;37.00;;;;;;5074942;28;20488;-46
2022/06/20 04:52:56;;;;;;;4.37;3.87;;;25.80;36.80;;;;;;5075444;28;20777;-48
2022/06/20 04:55:24;;;;;;;4.53;3.37;;;25.90;36.70;;;;;;5074901;28;20489;-47
2022/06/20 04:57:57;;;;;;;4.93;3.47;;;25.90;36.50;;;;;;5074799;28;20406;-46
2022/06/20 05:00:29;;;;;;;8.20;4.00;;;26.00;36.90;;;;;;5074981;28;20410;-45
2022/06/20 05:02:57;;;;;;;7.17;4.20;;;26.00;37.00;;;;;;5073603;28;20495;-47
2022/06/20 05:05:27;;;;;;;7.60;4.00;;;26.00;37.40;;;;;;5074498;28;20429;-47
2022/06/20 05:07:54;;;;;;;6.80;3.73;;;25.90;36.90;;;;;;5074695;28;20813;-47
2022/06/20 05:10:23;;;;;;;6.47;3.33;;;25.80;37.00;;;;;;5074616;28;20923;-46
2022/06/20 05:12:57;;;;;;;5.67;2.80;;;25.70;37.70;;;;;;5074977;28;20417;-47
2022/06/20 05:15:48;;;;;;;5.10;3.80;;;25.60;37.80;;;;;;5074659;28;20874;-47
2022/06/20 05:18:23;;;;;;;3.83;3.33;;;25.50;38.00;;;;;;5074744;28;20836;-46
2022/06/20 05:20:53;;;;;;;7.27;4.80;;;25.50;37.90;;;;;;5074629;28;20449;-47
2022/06/20 05:23:38;;;;;;;4.40;3.57;;;25.60;38.00;;;;;;5074515;28;20414;-47
2022/06/20 05:26:06;;;;;;;5.00;3.47;;;25.70;38.30;;;;;;5074570;28;20413;-46
2022/06/20 05:28:36;;;;;;;5.37;4.13;;;25.70;38.10;;;;;;5074890;28;20415;-46
2022/06/20 05:31:02;;;;;;;5.50;3.63;;;25.90;38.00;;;;;;5074733;28;20435;-47
2022/06/20 05:33:57;;;;;;;4.30;3.30;;;25.90;37.80;;;;;;5074196;28;20426;-47
2022/06/20 05:36:32;;;;;;;6.60;3.30;;;26.10;38.00;;;;;;5073802;28;20443;-46
2022/06/20 05:39:05;;;;;;;7.63;4.17;;;26.10;37.80;;;;;;5074048;28;20395;-46
2022/06/20 05:41:31;;;;;;;5.90;3.93;;;26.20;37.70;;;;;;5074036;28;20446;-46
2022/06/20 05:43:57;;;;;;;6.50;4.10;;;26.20;37.70;;;;;;5073915;28;20438;-46
2022/06/20 05:46:26;;;;;;;5.00;3.97;;;26.30;37.60;;;;;;5073685;28;20177;-46
2022/06/20 05:48:54;;;;;;;10.57;4.00;;;26.40;37.40;;;;;;5073975;28;20444;-47
2022/06/20 05:51:23;;;;;;;16.23;4.20;;;26.40;37.50;;;;;;5073998;28;20446;-47
2022/06/20 05:54:09;;;;;;;5.23;3.60;;;26.30;37.30;;;;;;5074094;28;20925;-46
2022/06/20 05:56:41;;;;;;;4.50;3.27;;;26.30;37.40;;;;;;5073583;28;20730;-46
2022/06/20 05:59:25;;;;;;;5.73;3.83;;;26.30;37.50;;;;;;5073868;28;20810;-47
2022/06/20 06:01:58;;;;;;;4.97;4.17;;;26.30;37.60;;;;;;5073729;28;20406;-47
2022/06/20 06:04:31;;;;;;;10.10;5.10;;;26.30;37.50;;;;;;5073734;28;20885;-47
2022/06/20 06:07:02;;;;;;;6.50;3.90;;;26.40;37.60;;;;;;5073726;28;20483;-47
2022/06/20 06:09:43;;;;;;;6.13;4.10;;;26.40;37.60;;;;;;5073384;28;20411;-46
2022/06/20 06:12:21;;;;;;;6.07;3.87;;;26.40;37.60;;;;;;5073713;28;20403;-47
2022/06/20 06:15:09;;;;;;;5.77;3.70;;;26.40;37.40;;;;;;5073562;28;20391;-46
2022/06/20 06:17:53;;;;;;;5.30;4.30;;;26.50;37.60;;;;;;5072822;28;20417;-46
2022/06/20 06:20:23;;;;;;;5.67;3.77;;;26.50;37.60;;;;;;5073095;28;20451;-47
2022/06/20 06:22:53;;;;;;;4.37;3.43;;;26.50;37.40;;;;;;5073311;28;20441;-47
2022/06/20 06:25:31;;;;;;;4.27;3.20;;;26.50;37.10;;;;;;5073536;28;20934;-46
2022/06/20 06:28:17;;;;;;;8.33;3.90;;;26.40;37.10;;;;;;5072973;28;20391;-47
2022/06/20 06:30:48;;;;;;;4.63;3.10;;;26.40;37.70;;;;;;5073262;28;20430;-47
2022/06/20 06:33:49;;;;;;;5.20;2.80;;;26.40;37.40;;;;;;5073207;28;20429;-46
2022/06/20 06:37:00;;;;;;;5.40;3.70;;;26.40;37.20;;;;;;5070915;28;20536;-46
2022/06/20 06:39:49;;;;;;;5.93;3.67;;;26.20;36.50;;;;;;5049904;28;20411;-46
2022/06/20 06:42:16;;;;;;;4.77;4.10;;;26.00;37.40;;;;;;5073376;28;20739;-47
2022/06/20 06:44:46;;;;;;;4.93;3.67;;;25.90;36.50;;;;;;5072924;28;20403;-47
2022/06/20 06:47:27;;;;;;;4.73;3.47;;;25.90;36.90;;;;;;5072735;28;20482;-46
2022/06/20 06:50:03;;;;;;;3.83;2.50;;;26.00;37.20;;;;;;5072814;28;20861;-47
2022/06/20 06:52:43;;;;;;;4.40;3.53;;;26.10;37.30;;;;;;5072938;28;20521;-46
2022/06/20 06:55:37;;;;;;;8.30;4.53;;;26.10;36.60;;;;;;5071481;28;20406;-47
2022/06/20 06:58:18;;;;;;;10.30;3.60;;;26.10;36.50;;;;;;5072911;28;20510;-46
2022/06/20 07:01:03;;;;;;;5.93;3.70;;;26.00;36.70;;;;;;5072780;28;20916;-48
2022/06/20 07:03:36;;;;;;;5.13;4.40;;;25.90;36.50;;;;;;5072740;28;20871;-47
2022/06/20 07:06:09;;;;;;;5.20;4.70;;;25.90;36.30;;;;;;5072460;28;20379;-47
2022/06/20 07:08:44;;;;;;;6.73;4.90;;;25.80;36.30;;;;;;5072859;28;20387;-47
2022/06/20 07:11:32;;;;;;;6.13;4.70;;;25.70;36.10;;;;;;5072365;28;20428;-48
2022/06/20 07:14:04;;;;;;;7.00;4.47;;;25.60;36.20;;;;;;5072624;28;20395;-47
2022/06/20 07:17:02;;;;;;;4.83;4.10;;;25.40;36.60;;;;;;5072369;28;20443;-47
2022/06/20 07:19:28;;;;;;;5.57;4.67;;;25.40;37.00;;;;;;5066359;28;20415;-47
2022/06/20 07:21:56;;;;;;;4.60;4.10;;;25.50;37.10;;;;;;5072469;28;20403;-46
2022/06/20 07:24:26;;;;;;;5.80;5.20;;;25.60;37.00;;;;;;5072208;28;20410;-47
2022/06/20 07:26:58;;;;;;;5.70;4.97;;;25.80;36.70;;;;;;5072062;28;20415;-47
2022/06/20 07:29:40;;;;;;;7.10;4.80;;;25.90;36.60;;;;;;5072524;28;20403;-47
2022/06/20 07:32:12;;;;;;;6.10;5.00;;;26.00;36.60;;;;;;5072339;28;20383;-48
2022/06/20 07:34:41;;;;;;;8.03;5.57;;;26.00;36.70;;;;;;5072561;28;20387;-47
2022/06/20 07:37:23;;;;;;;6.37;5.23;;;26.10;36.40;;;;;;5072006;28;20458;-47
2022/06/20 07:40:16;;;;;;;6.07;4.57;;;26.20;36.40;;;;;;5072531;28;20445;-46
2022/06/20 07:43:03;;;;;;;8.13;5.20;;;26.30;36.50;;;;;;5071943;28;20411;-46
2022/06/20 07:45:38;;;;;;;9.77;5.90;;;26.30;36.30;;;;;;5072612;28;20399;-46
2022/06/20 07:48:25;;;;;;;7.10;5.47;;;26.40;35.60;;;;;;5072653;28;20390;-46
2022/06/20 07:51:08;;;;;;;6.50;5.60;;;26.40;36.00;;;;;;5072715;28;20779;-46
2022/06/20 07:53:39;;;;;;;10.47;5.27;;;26.50;35.90;;;;;;5072715;28;20583;-47
2022/06/20 07:56:15;;;;;;;5.60;5.10;;;26.50;35.50;;;;;;5072840;28;20438;-47
2022/06/20 07:58:48;;;;;;;6.40;4.77;;;26.60;35.40;;;;;;5072815;28;20485;-47
2022/06/20 08:01:23;;;;;;;8.77;6.20;;;26.50;35.90;;;;;;5072730;28;20512;-46
2022/06/20 08:03:56;;;;;;;7.70;5.17;;;26.40;35.60;;;;;;5072709;28;20399;-47
2022/06/20 08:06:47;;;;;;;8.27;5.10;;;26.40;35.80;;;;;;5072503;28;20890;-47
2022/06/20 08:09:34;;;;;;;5.13;4.70;;;26.40;35.50;;;;;;5071885;28;20473;-46
2022/06/20 08:12:05;;;;;;;8.07;4.80;;;26.40;35.80;;;;;;5072491;28;20422;-47
2022/06/20 08:15:02;;;;;;;7.40;4.90;;;26.40;36.00;;;;;;5072608;28;20410;-46
2022/06/20 08:17:32;;;;;;;9.87;5.27;;;26.30;35.10;;;;;;5069612;28;20471;-48
2022/06/20 08:19:59;;;;;;;8.40;5.50;;;26.20;35.70;;;;;;5072197;28;20469;-46
2022/06/20 08:23:00;;;;;;;8.43;5.37;;;26.20;36.00;;;;;;5072166;28;20530;-46
2022/06/20 08:25:35;;;;;;;6.57;4.73;;;26.20;36.00;;;;;;5064739;28;20560;-46
2022/06/20 08:28:14;;;;;;;6.47;5.73;;;26.20;35.70;;;;;;5072204;28;20398;-47
2022/06/20 08:30:45;;;;;;;7.60;5.07;;;26.30;35.80;;;;;;5071922;28;20433;-46
2022/06/20 08:33:43;;;;;;;6.23;5.57;;;26.40;35.60;;;;;;5071935;28;20411;-47
2022/06/20 08:36:50;;;;;;;6.63;5.00;;;26.40;35.50;;;;;;5071771;28;20449;-47
2022/06/20 08:39:30;;;;;;;7.83;5.50;;;26.20;35.40;;;;;;5051781;28;20444;-47
2022/06/20 08:42:33;;;;;;;6.03;4.83;;;26.20;35.50;;;;;;5075831;28;20456;-47
2022/06/20 08:44:59;;;;;;;8.83;5.73;;;26.20;36.00;;;;;;5075986;28;20387;-46
2022/06/20 08:47:27;;;;;;;7.93;5.50;;;26.30;35.60;;;;;;5074908;28;20495;-46
2022/06/20 08:50:22;;;;;;;6.53;5.93;;;26.40;35.70;;;;;;5075176;28;20953;-46
2022/06/20 08:53:39;;;;;;;7.43;6.17;;;26.50;35.40;;;;;;5075603;28;20411;-46
2022/06/20 08:56:50;;;;;;;7.63;6.13;;;26.50;35.50;;;;;;5040445;28;20454;-46
2022/06/20 08:59:51;;;;;;;8.20;4.70;;;26.60;35.50;;;;;;5064906;28;20423;-46
2022/06/20 09:02:26;;;;;;;6.97;5.20;;;26.70;35.70;;;;;;5075186;28;20456;-46
2022/06/20 09:05:04;;;;;;;5.90;5.30;;;26.80;35.50;;;;;;5075253;28;20402;-47
2022/06/20 09:07:59;;;;;;;7.70;5.97;;;26.90;35.60;;;;;;5075763;28;20393;-48
2022/06/20 09:10:34;;;;;;;7.20;5.43;;;27.10;35.80;;;;;;5075492;28;20673;-47
2022/06/20 09:13:14;;;;;;;8.90;5.53;;;27.30;35.30;;;;;;5075672;28;20762;-47
2022/06/20 09:15:55;;;;;;;6.43;5.30;;;27.40;34.90;;;;;;5075354;28;20454;-47
2022/06/20 09:19:15;;;;;;;6.10;5.17;;;27.50;34.70;;;;;;5075342;28;20475;-47
2022/06/20 09:21:50;;;;;;;4.93;4.33;;;27.50;34.40;;;;;;5032816;28;20456;-46
2022/06/20 09:24:45;;;;;;;8.00;5.43;;;27.60;34.90;;;;;;5074498;28;20509;-46
2022/06/20 09:27:22;;;;;;;6.00;5.10;;;27.70;34.90;;;;;;5074699;28;20407;-47
2022/06/20 09:30:08;;;;;;;6.17;4.57;;;27.80;34.50;;;;;;5075618;28;20423;-45
2022/06/20 09:32:52;;;;;;;5.90;5.27;;;27.80;35.00;;;;;;5075186;28;20524;-46
2022/06/20 09:35:43;;;;;;;12.53;7.60;;;27.80;34.10;;;;;;5075230;28;20449;-46
2022/06/20 09:38:35;;;;;;;7.90;5.80;;;27.70;34.20;;;;;;5074927;28;20402;-47
2022/06/20 09:41:25;;;;;;;6.90;5.70;;;27.60;34.20;;;;;;5068949;28;20431;-47
2022/06/20 09:44:18;;;;;;;6.30;5.30;;;27.50;34.20;;;;;;5074583;28;20391;-47
2022/06/20 09:47:20;;;;;;;6.17;5.23;;;27.40;34.40;;;;;;5074059;28;20395;-47
2022/06/20 09:50:07;;;;;;;16.73;5.70;;;27.30;34.60;;;;;;5072368;28;20521;-46
2022/06/20 09:53:02;;;;;;;6.33;5.03;;;27.30;34.70;;;;;;5074148;28;20889;-47
2022/06/20 09:55:32;;;;;;;6.30;5.40;;;27.20;34.90;;;;;;5074638;28;20411;-48
2022/06/20 09:58:10;;;;;;;7.20;4.80;;;27.10;35.00;;;;;;5074292;28;20914;-47
2022/06/20 10:01:13;;;;;;;6.70;5.43;;;27.10;35.20;;;;;;5073827;28;20502;-46
2022/06/20 10:04:01;;;;;;;7.80;4.30;;;27.20;35.60;;;;;;5073587;28;20391;-46
2022/06/20 10:06:39;;;;;;;6.90;4.90;;;27.20;35.20;;;;;;5073231;28;20394;-47
2022/06/20 10:09:35;;;;;;;6.47;4.50;;;27.10;35.40;;;;;;5073361;28;20387;-46
2022/06/20 10:12:13;;;;;;;7.70;3.90;;;27.20;35.20;;;;;;5073232;28;20465;-46
2022/06/20 10:15:12;;;;;;;6.13;4.70;;;27.20;35.20;;;;;;5073566;28;20962;-45
2022/06/20 10:17:55;;;;;;;4.90;3.80;;;27.20;35.60;;;;;;5073661;28;20529;-47
2022/06/20 10:20:48;;;;;;;7.90;4.90;;;27.20;35.70;;;;;;5073788;28;20450;-46
2022/06/20 10:23:33;;;;;;;7.67;5.73;;;27.10;35.80;;;;;;5073509;28;20438;-47
2022/06/20 10:26:10;;;;;;;7.90;5.33;;;27.10;35.70;;;;;;5073314;28;20413;-46
2022/06/20 10:28:45;;;;;;;6.43;5.77;;;27.10;35.80;;;;;;5073737;28;20474;-47
2022/06/20 10:31:13;;;;;;;8.47;6.07;;;27.00;36.10;;;;;;5073237;28;20418;-48
2022/06/20 10:33:50;;;;;;;8.60;5.47;;;26.80;35.60;;;;;;5073344;28;20433;-47
2022/06/20 10:36:27;;;;;;;7.83;4.93;;;26.70;36.10;;;;;;5072988;28;20567;-46
2022/06/20 10:39:02;;;;;;;8.30;5.03;;;26.60;36.10;;;;;;5072957;28;20897;-46
2022/06/20 10:41:36;;;;;;;8.13;6.20;;;26.50;36.60;;;;;;5073016;28;20434;-47
2022/06/20 10:44:27;;;;;;;11.13;5.87;;;26.40;36.70;;;;;;5072881;28;20391;-47
2022/06/20 10:47:04;;;;;;;6.47;5.87;;;26.30;36.60;;;;;;5072848;28;20410;-47
2022/06/20 10:49:43;;;;;;;8.47;6.20;;;26.20;36.90;;;;;;5073154;28;20475;-48
2022/06/20 10:52:21;;;;;;;8.47;6.53;;;26.00;37.10;;;;;;5073039;28;20475;-47
2022/06/20 10:55:17;;;;;;;7.10;5.10;;;26.10;37.30;;;;;;5072802;28;20975;-47
2022/06/20 10:57:58;;;;;;;9.57;5.03;;;25.90;37.00;;;;;;5072778;28;20443;-47
2022/06/20 11:00:27;;;;;;;6.23;4.70;;;25.90;37.60;;;;;;5072984;28;20414;-47
2022/06/20 11:03:11;;;;;;;6.03;5.27;;;25.90;37.40;;;;;;5072412;28;20411;-47
2022/06/20 11:06:02;;;;;;;6.07;5.30;;;25.90;37.50;;;;;;5072689;28;20421;-47
2022/06/20 11:09:04;;;;;;;7.03;5.27;;;25.90;37.90;;;;;;5072525;28;20426;-47
2022/06/20 11:11:37;;;;;;;8.40;5.80;;;26.00;37.40;;;;;;5072234;28;20418;-47
2022/06/20 11:14:12;;;;;;;5.80;4.53;;;26.10;37.40;;;;;;5072457;28;20901;-46
2022/06/20 11:16:50;;;;;;;6.93;5.60;;;26.20;37.60;;;;;;5072246;28;20521;-47
2022/06/20 11:19:54;;;;;;;6.53;5.93;;;26.20;37.20;;;;;;5072522;28;20437;-47
2022/06/20 11:22:24;;;;;;;8.87;4.97;;;26.20;37.00;;;;;;5052898;28;20434;-47
2022/06/20 11:25:21;;;;;;;13.37;5.50;;;26.10;37.10;;;;;;5072918;28;20428;-47
2022/06/20 11:27:59;;;;;;;8.10;4.87;;;26.10;37.40;;;;;;5072182;28;20398;-47
2022/06/20 11:30:45;;;;;;;6.47;4.37;;;26.00;37.30;;;;;;5072327;28;20914;-46
2022/06/20 11:34:03;;;;;;;5.83;4.90;;;25.90;37.00;;;;;;5071502;28;20415;-46
2022/06/20 11:36:45;;;;;;;6.40;4.73;;;25.80;37.10;;;;;;5071819;28;20914;-46
2022/06/20 11:39:20;;;;;;;6.40;3.80;;;25.60;37.30;;;;;;5072593;28;20751;-46
2022/06/20 11:41:54;;;;;;;6.17;4.37;;;25.50;37.50;;;;;;5072490;28;20430;-46
2022/06/20 11:44:39;;;;;;;6.27;5.00;;;25.40;37.70;;;;;;5072303;28;20391;-48
2022/06/20 11:47:27;;;;;;;6.43;4.57;;;25.20;37.80;;;;;;5072259;28;20499;-47
2022/06/20 11:50:24;;;;;;;5.50;4.43;;;25.20;38.20;;;;;;5072074;28;20426;-46
2022/06/20 11:52:53;;;;;;;5.87;4.77;;;25.10;38.50;;;;;;5071963;28;20986;-47
2022/06/20 11:55:37;;;;;;;6.43;3.90;;;25.00;38.90;;;;;;5071873;28;20413;-46
2022/06/20 11:58:03;;;;;;;5.97;4.20;;;25.00;38.60;;;;;;5072161;28;20854;-46
2022/06/20 12:00:50;;;;;;;7.37;4.60;;;25.00;38.60;;;;;;5072012;28;20505;-47
2022/06/20 12:03:40;;;;;;;5.27;4.10;;;24.90;38.80;;;;;;5071940;28;20172;-47
2022/06/20 12:06:14;;;;;;;8.00;4.57;;;24.80;38.80;;;;;;5071743;28;20403;-47
2022/06/20 12:09:09;;;;;;;6.93;4.20;;;24.70;39.30;;;;;;5072037;28;20892;-46
2022/06/20 12:11:52;;;;;;;5.00;3.60;;;24.60;39.40;;;;;;5071884;28;20419;-47
2022/06/20 12:14:26;;;;;;;3.93;3.33;;;24.50;40.10;;;;;;5072525;28;20449;-46
2022/06/20 12:17:17;;;;;;;3.13;2.83;;;24.40;40.40;;;;;;5075569;28;21014;-47
2022/06/20 12:25:50;;;;;;;4.57;3.63;;;24.00;41.30;;;;;;5076157;28;20410;-47
2022/06/20 12:28:23;;;;;;;4.37;3.07;;;23.90;41.40;;;;;;5075893;28;20402;-46
2022/06/20 12:31:01;;;;;;;3.93;2.67;;;23.80;42.10;;;;;;5075550;28;20415;-46
2022/06/20 12:33:29;;;;;;;4.10;2.70;;;23.70;42.70;;;;;;5076231;28;20847;-47
2022/06/20 12:36:00;;;;;;;4.50;3.17;;;23.60;42.50;;;;;;5075517;28;20588;-46
2022/06/20 12:39:08;;;;;;;3.40;2.43;;;23.50;42.40;;;;;;5076225;28;20398;-47
2022/06/20 12:41:40;;;;;;;3.70;2.60;;;23.50;42.60;;;;;;5074933;28;20431;-46
2022/06/20 12:44:23;;;;;;;4.33;3.03;;;23.40;42.30;;;;;;5075500;28;20890;-47
2022/06/20 12:46:50;;;;;;;3.70;3.10;;;23.40;42.50;;;;;;5075376;28;20422;-46
2022/06/20 12:49:31;;;;;;;3.47;3.13;;;23.40;42.60;;;;;;5075513;28;20426;-47
2022/06/20 12:52:21;;;;;;;3.50;2.80;;;23.40;42.50;;;;;;5075745;28;20416;-47
2022/06/20 12:55:20;;;;;;;3.50;2.53;;;23.30;42.50;;;;;;5075282;28;20536;-46
2022/06/20 12:58:12;;;;;;;3.33;2.63;;;23.30;43.00;;;;;;5074417;28;20544;-47
2022/06/20 13:00:58;;;;;;;3.30;2.30;;;23.30;42.70;;;;;;5075257;28;20470;-47
2022/06/20 13:03:46;;;;;;;3.23;2.10;;;23.30;42.50;;;;;;5076030;28;20418;-46
2022/06/20 13:06:43;;;;;;;4.07;3.23;;;23.20;42.50;;;;;;5075888;28;20395;-47
2022/06/20 13:09:43;;;;;;;3.50;2.70;;;23.20;42.60;;;;;;5075154;28;20418;-48
2022/06/20 13:12:27;;;;;;;3.80;2.80;;;23.20;42.80;;;;;;5075298;28;20482;-47
2022/06/20 13:15:20;;;;;;;3.33;2.37;;;23.10;43.00;;;;;;5075656;28;20490;-47
2022/06/20 13:18:01;;;;;;;5.80;2.37;;;23.00;43.20;;;;;;5074851;28;20447;-47
2022/06/20 13:20:35;;;;;;;2.90;2.60;;;23.00;44.00;;;;;;5074404;28;20893;-47
2022/06/20 13:23:24;;;;;;;3.20;2.43;;;22.80;43.90;;;;;;5074604;28;20413;-46
2022/06/20 13:26:19;;;;;;;2.93;2.30;;;22.70;43.90;;;;;;5073960;28;20805;-47
2022/06/20 13:29:05;;;;;;;4.13;2.53;;;22.70;44.00;;;;;;5072341;28;20450;-47
2022/06/20 13:31:41;;;;;;;3.70;2.87;;;22.60;44.40;;;;;;5074957;28;20434;-46
2022/06/20 13:34:24;;;;;;;3.77;1.97;;;22.60;44.10;;;;;;5074646;28;20839;-46
2022/06/20 13:36:58;;;;;;;6.30;3.17;;;22.60;44.80;;;;;;5074210;28;20934;-47
2022/06/20 13:39:27;;;;;;;3.20;2.40;;;22.60;44.70;;;;;;5074515;28;20399;-46
2022/06/20 13:42:10;;;;;;;3.57;3.00;;;22.60;44.90;;;;;;5074678;28;20956;-47
2022/06/20 13:44:46;;;;;;;3.13;1.97;;;22.50;45.50;;;;;;5074740;28;20394;-47
2022/06/20 13:47:46;;;;;;;2.47;1.83;;;22.40;45.00;;;;;;5074467;28;20386;-47
2022/06/20 13:50:45;;;;;;;3.03;1.70;;;22.40;44.60;;;;;;5074642;28;20435;-46
2022/06/20 13:53:28;;;;;;;3.47;1.90;;;22.30;44.80;;;;;;5074449;28;20398;-47
2022/06/20 13:56:16;;;;;;;2.63;2.00;;;22.20;44.50;;;;;;5074408;28;20582;-46
2022/06/20 13:58:53;;;;;;;3.67;2.60;;;22.20;44.60;;;;;;5074121;28;20411;-46
2022/06/20 14:01:21;;;;;;;3.00;1.70;;;22.10;45.00;;;;;;5074532;28;20427;-47
2022/06/20 14:03:49;;;;;;;3.73;2.53;;;22.10;44.90;;;;;;5074347;28;20407;-47